Time;durP1;ratioP1;P1;durP2;ratioP2;P2;SDS_P1;SDS_P2;PMS_P1;PMS_P2;Temp;Humidity;BMP_temperature;BMP_pressure;BME280_temperature;BME280_humidity;BME280_pressure;Samples;Min_cycle;Max_cycle;Signal;HPM_P1;HPM_P2
2023/03/15 00:01:58;;;;;;;16.57;8.27;;;5.50;99.90;;;;;;4448856;28;656625;-66
2023/03/15 00:04:47;;;;;;;18.75;11.00;;;5.50;99.90;;;;;;4428717;28;657325;-67
2023/03/15 00:07:34;;;;;;;13.57;7.43;;;5.40;99.90;;;;;;4446802;28;657509;-66
2023/03/15 00:10:21;;;;;;;17.27;11.10;;;5.20;99.90;;;;;;4414037;28;656269;-66
2023/03/15 00:13:08;;;;;;;13.73;8.55;;;5.00;99.90;;;;;;4436070;28;658241;-66
2023/03/15 00:15:57;;;;;;;18.07;11.13;;;4.80;99.90;;;;;;4420260;28;656755;-67
2023/03/15 00:18:45;;;;;;;16.27;9.43;;;4.70;99.90;;;;;;4438084;28;658348;-66
2023/03/15 00:21:34;;;;;;;19.97;11.10;;;4.60;99.90;;;;;;4422041;28;658389;-66
2023/03/15 00:24:21;;;;;;;19.25;10.88;;;4.50;99.90;;;;;;4421708;28;657800;-67
2023/03/15 00:27:08;;;;;;;17.37;10.37;;;4.60;99.90;;;;;;4430714;28;657736;-67
2023/03/15 00:29:56;;;;;;;15.87;10.83;;;4.40;99.90;;;;;;4422241;28;657417;-67
2023/03/15 00:32:43;;;;;;;15.50;9.67;;;4.40;99.90;;;;;;4438624;28;658088;-67
2023/03/15 00:35:30;;;;;;;10.23;6.50;;;4.40;99.90;;;;;;4421338;28;656373;-68
2023/03/15 00:38:20;;;;;;;10.77;6.17;;;4.30;99.90;;;;;;4444448;28;657518;-67
2023/03/15 00:41:08;;;;;;;10.80;7.10;;;4.20;99.90;;;;;;4420005;28;657290;-66
2023/03/15 00:43:55;;;;;;;9.63;5.63;;;4.10;99.90;;;;;;4425604;28;656382;-67
2023/03/15 00:46:43;;;;;;;10.27;5.03;;;4.00;99.90;;;;;;4442369;28;656804;-67
2023/03/15 00:49:30;;;;;;;6.53;2.85;;;4.00;99.90;;;;;;4420703;28;656482;-67
2023/03/15 00:52:18;;;;;;;3.57;3.00;;;3.90;99.90;;;;;;4438172;28;656628;-67
2023/03/15 00:55:12;;;;;;;3.47;2.42;;;3.80;99.90;;;;;;4427233;28;656542;-68
2023/03/15 00:57:59;;;;;;;2.47;1.60;;;3.60;99.90;;;;;;4425828;28;655868;-69
2023/03/15 01:00:46;;;;;;;3.00;2.03;;;3.50;99.90;;;;;;4420809;28;656655;-69
2023/03/15 01:03:33;;;;;;;2.43;1.80;;;3.50;99.90;;;;;;4445764;28;655650;-69
2023/03/15 01:06:21;;;;;;;3.17;2.00;;;3.40;99.90;;;;;;4423962;28;655294;-69
2023/03/15 01:09:09;;;;;;;2.30;1.97;;;3.30;99.90;;;;;;4443223;28;655863;-69
2023/03/15 01:11:57;;;;;;;3.07;1.97;;;3.20;99.90;;;;;;4426049;28;655333;-68
2023/03/15 01:14:44;;;;;;;7.10;2.20;;;3.10;99.90;;;;;;4447442;28;656214;-69
2023/03/15 01:17:32;;;;;;;3.30;1.10;;;3.00;99.90;;;;;;4415654;28;656196;-69
2023/03/15 01:20:19;;;;;;;2.47;2.00;;;3.00;99.90;;;;;;4445411;28;655634;-69
2023/03/15 01:23:06;;;;;;;2.27;1.60;;;2.90;99.90;;;;;;4421850;28;655606;-69
2023/03/15 01:25:53;;;;;;;1.80;1.43;;;2.90;99.90;;;;;;4442547;28;655748;-69
2023/03/15 01:28:42;;;;;;;1.90;1.50;;;2.80;99.90;;;;;;4423182;28;656003;-69
2023/03/15 01:31:30;;;;;;;3.40;1.30;;;2.80;99.90;;;;;;4435843;28;654992;-69
2023/03/15 01:34:17;;;;;;;3.57;1.83;;;2.70;99.90;;;;;;4417188;28;656742;-69
2023/03/15 01:37:05;;;;;;;2.47;1.80;;;2.70;99.90;;;;;;4434778;28;656172;-68
2023/03/15 01:39:52;;;;;;;2.50;1.60;;;2.60;99.90;;;;;;4423742;28;656587;-69
2023/03/15 01:42:51;;;;;;;2.83;2.00;;;2.50;99.90;;;;;;4440107;28;654648;-69
2023/03/15 01:46:17;;;;;;;3.30;2.07;;;2.50;99.90;;;;;;4421336;28;655325;-69
2023/03/15 01:49:06;;;;;;;2.93;1.90;;;2.40;99.90;;;;;;4425710;28;655227;-68
2023/03/15 01:51:54;;;;;;;3.77;2.83;;;2.50;99.90;;;;;;4414034;28;656101;-69
2023/03/15 01:54:45;;;;;;;5.43;3.17;;;2.40;99.90;;;;;;4418792;28;655990;-69
2023/03/15 01:57:35;;;;;;;5.03;2.80;;;2.40;99.90;;;;;;4422065;28;656439;-69
2023/03/15 02:00:22;;;;;;;4.30;2.50;;;2.40;99.90;;;;;;4413196;28;656641;-69
2023/03/15 02:03:13;;;;;;;3.83;2.77;;;2.40;99.90;;;;;;4442879;28;656616;-69
2023/03/15 02:06:02;;;;;;;4.93;2.80;;;2.40;99.90;;;;;;4422286;28;655707;-69
2023/03/15 02:08:51;;;;;;;3.77;2.53;;;2.30;99.90;;;;;;4438302;28;656529;-69
2023/03/15 02:11:38;;;;;;;5.73;2.60;;;2.20;99.90;;;;;;4420392;28;657285;-68
2023/03/15 02:14:25;;;;;;;4.13;2.73;;;2.10;99.90;;;;;;4422433;28;655891;-69
2023/03/15 02:17:13;;;;;;;6.83;3.27;;;2.10;99.90;;;;;;4441015;28;656878;-66
2023/03/15 02:20:05;;;;;;;5.53;2.10;;;2.10;99.90;;;;;;4435082;28;655652;-66
2023/03/15 02:22:54;;;;;;;8.00;3.93;;;2.00;99.90;;;;;;4420958;28;656723;-66
2023/03/15 02:25:44;;;;;;;12.10;4.17;;;2.00;99.90;;;;;;4415249;28;656599;-66
2023/03/15 02:28:32;;;;;;;8.23;3.67;;;2.00;99.90;;;;;;4419340;28;656461;-66
2023/03/15 02:31:20;;;;;;;6.97;3.27;;;2.00;99.90;;;;;;4431018;28;656189;-67
2023/03/15 02:34:08;;;;;;;6.73;2.97;;;2.00;99.90;;;;;;4440586;28;657169;-66
2023/03/15 02:36:55;;;;;;;7.07;3.55;;;2.00;99.90;;;;;;4427053;28;656059;-68
2023/03/15 02:39:42;;;;;;;7.17;3.63;;;2.00;99.90;;;;;;4435230;28;656260;-66
2023/03/15 02:42:30;;;;;;;9.30;4.00;;;2.00;99.90;;;;;;4432662;28;656008;-68
2023/03/15 02:45:19;;;;;;;10.97;3.50;;;2.10;99.90;;;;;;4431884;28;654937;-65
2023/03/15 02:48:06;;;;;;;9.47;4.23;;;2.10;99.90;;;;;;4418690;28;657181;-67
2023/03/15 02:50:53;;;;;;;8.10;4.43;;;2.00;99.90;;;;;;4437328;28;656935;-66
2023/03/15 02:53:40;;;;;;;8.43;4.40;;;2.00;99.90;;;;;;4412551;28;655726;-69
2023/03/15 02:56:28;;;;;;;6.40;3.90;;;2.00;99.90;;;;;;4437861;28;656720;-66
2023/03/15 02:59:15;;;;;;;9.73;3.63;;;2.00;99.90;;;;;;4427833;28;655448;-68
2023/03/15 03:02:04;;;;;;;5.67;2.93;;;2.00;99.90;;;;;;4436631;28;655570;-65
2023/03/15 03:04:52;;;;;;;10.82;3.25;;;2.10;99.90;;;;;;4414285;28;655716;-66
2023/03/15 03:07:41;;;;;;;7.53;2.57;;;2.00;99.90;;;;;;4426340;28;657133;-66
2023/03/15 03:10:28;;;;;;;7.30;2.93;;;2.00;99.90;;;;;;4399444;28;655487;-66
2023/03/15 03:13:16;;;;;;;5.43;3.13;;;2.00;99.90;;;;;;4403821;28;655672;-66
2023/03/15 03:16:03;;;;;;;9.43;3.50;;;2.00;99.90;;;;;;4420704;28;656646;-66
2023/03/15 03:18:52;;;;;;;8.53;3.20;;;2.00;99.90;;;;;;4397470;28;654920;-67
2023/03/15 03:21:42;;;;;;;8.87;3.43;;;2.00;99.90;;;;;;4428594;28;655354;-67
2023/03/15 03:24:30;;;;;;;6.10;3.43;;;2.00;99.90;;;;;;4405597;28;656357;-66
2023/03/15 03:27:17;;;;;;;12.77;3.40;;;2.10;99.90;;;;;;4411187;28;656873;-68
2023/03/15 03:30:04;;;;;;;10.67;2.87;;;2.00;99.90;;;;;;4419126;28;657060;-66
2023/03/15 03:32:52;;;;;;;12.87;3.17;;;2.00;99.90;;;;;;4409903;28;657119;-68
2023/03/15 03:35:41;;;;;;;8.80;3.60;;;2.00;99.90;;;;;;4426706;28;656370;-69
2023/03/15 03:38:28;;;;;;;8.40;3.60;;;2.00;99.90;;;;;;4403908;28;656153;-68
2023/03/15 03:41:16;;;;;;;9.70;3.27;;;2.00;99.90;;;;;;4408918;28;655820;-69
2023/03/15 03:44:03;;;;;;;9.10;3.40;;;1.90;99.90;;;;;;4428743;28;656356;-65
2023/03/15 03:46:50;;;;;;;14.77;3.90;;;1.90;99.90;;;;;;4414655;28;655838;-68
2023/03/15 03:49:37;;;;;;;11.17;4.10;;;1.90;99.90;;;;;;4437381;28;657319;-66
2023/03/15 03:52:27;;;;;;;8.47;3.77;;;1.90;99.90;;;;;;4417982;28;655940;-67
2023/03/15 03:55:14;;;;;;;10.43;3.57;;;1.90;99.90;;;;;;4427075;28;655319;-67
2023/03/15 03:58:01;;;;;;;9.50;3.53;;;1.90;99.90;;;;;;4418956;28;656537;-67
2023/03/15 04:00:48;;;;;;;10.50;3.33;;;1.90;99.90;;;;;;4429839;28;655271;-68
2023/03/15 04:03:36;;;;;;;14.37;3.27;;;1.90;99.90;;;;;;4410682;28;656384;-67
2023/03/15 04:06:23;;;;;;;13.20;2.80;;;1.90;99.90;;;;;;4432647;28;657565;-66
2023/03/15 04:09:12;;;;;;;10.53;3.43;;;1.90;99.90;;;;;;4409031;28;656389;-67
2023/03/15 04:11:59;;;;;;;5.90;2.10;;;1.90;99.90;;;;;;4428673;28;657343;-66
2023/03/15 04:14:46;;;;;;;9.53;2.90;;;1.80;99.90;;;;;;4409052;28;655184;-66
2023/03/15 04:17:34;;;;;;;9.93;2.90;;;1.80;99.90;;;;;;4424005;28;656142;-65
2023/03/15 04:20:21;;;;;;;10.13;2.80;;;1.80;99.90;;;;;;4406744;28;655367;-67
2023/03/15 04:23:08;;;;;;;9.13;2.63;;;1.70;99.90;;;;;;4429326;28;657163;-66
2023/03/15 04:25:57;;;;;;;12.50;2.63;;;1.70;99.90;;;;;;4426517;28;656791;-68
2023/03/15 04:28:45;;;;;;;14.20;2.93;;;1.70;99.90;;;;;;4441253;28;656030;-66
2023/03/15 04:31:36;;;;;;;9.37;2.70;;;1.70;99.90;;;;;;4421186;28;657354;-66
2023/03/15 04:34:27;;;;;;;9.40;2.90;;;1.70;99.90;;;;;;4409565;28;656839;-66
2023/03/15 04:37:14;;;;;;;11.10;3.03;;;1.70;99.90;;;;;;4418854;28;655652;-66
2023/03/15 04:40:01;;;;;;;9.50;2.90;;;1.60;99.90;;;;;;4415766;28;657106;-67
2023/03/15 04:42:50;;;;;;;8.87;2.53;;;1.70;99.90;;;;;;4441519;28;655716;-67
2023/03/15 04:45:37;;;;;;;13.40;3.28;;;1.70;99.90;;;;;;4422490;28;655940;-67
2023/03/15 04:48:24;;;;;;;12.80;3.40;;;1.70;99.90;;;;;;4416951;28;656975;-66
2023/03/15 04:51:12;;;;;;;12.67;3.30;;;1.80;99.90;;;;;;4395638;28;657161;-67
2023/03/15 04:53:59;;;;;;;14.53;2.90;;;1.80;99.90;;;;;;4414473;28;656751;-66
2023/03/15 04:56:46;;;;;;;19.00;2.93;;;1.80;99.90;;;;;;4394455;28;656813;-69
2023/03/15 04:59:35;;;;;;;15.80;3.08;;;1.80;99.90;;;;;;4426981;28;658244;-66
2023/03/15 05:02:22;;;;;;;10.27;3.30;;;1.80;99.90;;;;;;4402016;28;657752;-67
2023/03/15 05:05:09;;;;;;;9.13;3.30;;;1.80;99.90;;;;;;4413070;28;656240;-66
2023/03/15 05:07:56;;;;;;;9.07;3.07;;;1.80;99.90;;;;;;4397153;28;655212;-66
2023/03/15 05:10:44;;;;;;;8.73;3.03;;;1.70;99.90;;;;;;4421785;28;655652;-67
2023/03/15 05:13:31;;;;;;;11.03;3.00;;;1.80;99.90;;;;;;4399556;28;655393;-67
2023/03/15 05:16:20;;;;;;;13.20;3.90;;;1.80;99.90;;;;;;4421858;28;657551;-66
2023/03/15 05:19:07;;;;;;;10.23;3.23;;;1.80;99.90;;;;;;4398775;28;657342;-67
2023/03/15 05:21:54;;;;;;;7.53;2.53;;;1.80;99.90;;;;;;4418006;28;656299;-66
2023/03/15 05:24:42;;;;;;;7.03;2.83;;;1.70;99.90;;;;;;4399930;28;655609;-66
2023/03/15 05:27:31;;;;;;;14.57;3.73;;;1.70;99.90;;;;;;4426844;28;656248;-66
2023/03/15 05:30:18;;;;;;;12.97;3.50;;;1.70;99.90;;;;;;4405656;28;657795;-67
2023/03/15 05:33:07;;;;;;;9.40;3.10;;;1.70;99.90;;;;;;4400500;28;656470;-66
2023/03/15 05:35:55;;;;;;;16.27;3.13;;;1.80;99.90;;;;;;4421403;28;655897;-66
2023/03/15 05:38:42;;;;;;;9.77;2.53;;;1.70;99.90;;;;;;4386868;28;657989;-66
2023/03/15 05:41:30;;;;;;;10.32;3.55;;;1.70;99.90;;;;;;4422851;28;655599;-66
2023/03/15 05:44:17;;;;;;;8.67;2.83;;;1.70;99.90;;;;;;4402596;28;657700;-66
2023/03/15 05:47:04;;;;;;;11.67;3.20;;;1.60;99.90;;;;;;4441847;28;655369;-66
2023/03/15 05:49:53;;;;;;;8.27;2.93;;;1.70;99.90;;;;;;4413059;28;656397;-67
2023/03/15 05:52:40;;;;;;;11.03;3.50;;;1.70;99.90;;;;;;4420644;28;655941;-67
2023/03/15 05:55:27;;;;;;;14.63;3.80;;;1.70;99.90;;;;;;4431007;28;657686;-70
2023/03/15 05:58:15;;;;;;;14.53;3.47;;;1.70;99.90;;;;;;4428323;28;656282;-71
2023/03/15 06:01:02;;;;;;;12.50;3.33;;;1.70;99.90;;;;;;4440945;28;657179;-66
2023/03/15 06:03:50;;;;;;;10.43;3.27;;;1.80;99.90;;;;;;4431519;28;656846;-68
2023/03/15 06:06:39;;;;;;;10.37;3.27;;;1.70;99.90;;;;;;4439489;28;657531;-66
2023/03/15 06:09:26;;;;;;;13.90;3.77;;;1.70;99.90;;;;;;4421330;28;656657;-66
2023/03/15 06:12:14;;;;;;;12.87;3.67;;;1.70;99.90;;;;;;4432466;28;656405;-66
2023/03/15 06:15:01;;;;;;;11.50;3.83;;;1.60;99.90;;;;;;4414941;28;656709;-67
2023/03/15 06:17:49;;;;;;;14.97;3.80;;;1.70;99.90;;;;;;4442926;28;657163;-66
2023/03/15 06:20:36;;;;;;;13.75;3.97;;;1.70;99.90;;;;;;4423194;28;656329;-67
2023/03/15 06:23:25;;;;;;;9.63;3.80;;;1.80;99.90;;;;;;4438870;28;656379;-66
2023/03/15 06:26:13;;;;;;;11.75;3.88;;;1.80;99.90;;;;;;4422830;28;655827;-65
2023/03/15 06:29:01;;;;;;;12.77;4.47;;;1.80;99.90;;;;;;4413077;28;657308;-66
2023/03/15 06:31:49;;;;;;;17.60;4.20;;;1.80;99.90;;;;;;4443862;28;657360;-66
2023/03/15 06:34:36;;;;;;;10.13;3.63;;;1.80;99.90;;;;;;4421439;28;656672;-67
2023/03/15 06:37:24;;;;;;;10.20;3.53;;;1.90;99.90;;;;;;4439071;28;657891;-67
2023/03/15 06:40:13;;;;;;;21.10;4.10;;;1.90;99.90;;;;;;4420836;28;657099;-67
2023/03/15 06:43:04;;;;;;;13.87;4.00;;;1.90;99.90;;;;;;4425508;28;657205;-68
2023/03/15 06:45:52;;;;;;;17.87;3.47;;;2.00;99.90;;;;;;4403030;28;657039;-66
2023/03/15 06:48:39;;;;;;;9.37;3.27;;;2.00;99.90;;;;;;4437182;28;656459;-67
2023/03/15 06:51:26;;;;;;;18.87;4.40;;;2.10;99.90;;;;;;4409455;28;655128;-66
2023/03/15 06:54:14;;;;;;;9.87;3.37;;;2.10;99.90;;;;;;4439034;28;656907;-67
2023/03/15 06:57:02;;;;;;;13.90;3.37;;;2.00;99.90;;;;;;4423885;28;655392;-68
2023/03/15 06:59:49;;;;;;;14.97;3.57;;;2.10;99.90;;;;;;4447689;28;656869;-66
2023/03/15 07:02:37;;;;;;;15.07;3.87;;;2.00;99.90;;;;;;4427084;28;656759;-66
2023/03/15 07:05:24;;;;;;;13.33;3.97;;;2.10;99.90;;;;;;4443397;28;656166;-68
2023/03/15 07:08:12;;;;;;;13.20;3.80;;;2.10;99.90;;;;;;4417022;28;656522;-66
2023/03/15 07:10:59;;;;;;;13.50;3.93;;;2.10;99.90;;;;;;4448317;28;655671;-66
2023/03/15 07:13:47;;;;;;;13.37;3.90;;;2.20;99.90;;;;;;4422910;28;657215;-66
2023/03/15 07:16:35;;;;;;;13.53;3.87;;;2.40;99.90;;;;;;4444970;28;657098;-67
2023/03/15 07:19:22;;;;;;;13.23;3.73;;;2.40;99.90;;;;;;4441527;28;657568;-68
2023/03/15 07:22:10;;;;;;;12.30;3.63;;;2.40;99.90;;;;;;4440436;28;657536;-67
2023/03/15 07:24:57;;;;;;;15.60;3.83;;;2.20;99.90;;;;;;4450880;28;657994;-66
2023/03/15 07:27:45;;;;;;;12.20;3.23;;;2.30;99.90;;;;;;4442222;28;658025;-68
2023/03/15 07:30:34;;;;;;;11.17;3.33;;;2.30;99.90;;;;;;4426686;28;657482;-66
2023/03/15 07:33:22;;;;;;;15.00;3.80;;;2.40;99.90;;;;;;4425902;28;657186;-67
2023/03/15 07:36:09;;;;;;;10.77;4.23;;;2.40;99.90;;;;;;4432569;28;656702;-66
2023/03/15 07:38:56;;;;;;;14.47;3.10;;;2.50;99.90;;;;;;4409542;28;656580;-66
2023/03/15 07:41:44;;;;;;;12.60;3.27;;;2.30;99.90;;;;;;4431536;28;657619;-66
2023/03/15 07:44:31;;;;;;;12.83;3.60;;;2.40;99.90;;;;;;4402260;28;656529;-66
2023/03/15 07:47:20;;;;;;;12.97;3.77;;;2.40;99.90;;;;;;4436725;28;657738;-66
2023/03/15 07:50:08;;;;;;;13.00;3.63;;;2.60;99.90;;;;;;4422029;28;656796;-67
2023/03/15 07:52:55;;;;;;;13.93;3.50;;;2.70;99.90;;;;;;4408591;28;656400;-67
2023/03/15 07:55:43;;;;;;;8.57;3.23;;;2.60;99.90;;;;;;4434569;28;657001;-68
2023/03/15 07:58:31;;;;;;;17.60;3.90;;;2.70;99.90;;;;;;4413145;28;655247;-67
2023/03/15 08:01:18;;;;;;;14.20;4.03;;;2.80;99.90;;;;;;4450279;28;656235;-66
2023/03/15 08:04:07;;;;;;;15.32;4.18;;;3.10;99.90;;;;;;4405278;28;656906;-67
2023/03/15 08:06:54;;;;;;;16.73;3.20;;;3.20;99.90;;;;;;4430936;28;656436;-66
2023/03/15 08:09:42;;;;;;;13.13;2.70;;;3.20;99.90;;;;;;4413267;28;657337;-66
2023/03/15 08:12:30;;;;;;;15.57;3.53;;;3.20;99.90;;;;;;4435525;28;656507;-66
2023/03/15 08:15:17;;;;;;;9.80;3.00;;;3.20;99.90;;;;;;4399417;28;657965;-66
2023/03/15 08:18:05;;;;;;;15.73;3.20;;;3.30;99.90;;;;;;4425664;28;655577;-66
2023/03/15 08:20:53;;;;;;;12.00;2.90;;;2.90;99.90;;;;;;4393491;28;657492;-66
2023/03/15 08:23:40;;;;;;;7.57;2.80;;;2.80;99.90;;;;;;4422395;28;657151;-66
2023/03/15 08:26:28;;;;;;;16.83;3.83;;;2.80;99.90;;;;;;4436390;28;657063;-66
2023/03/15 08:29:15;;;;;;;16.38;3.20;;;3.00;99.90;;;;;;4421757;28;656347;-68
2023/03/15 08:32:03;;;;;;;11.93;3.67;;;3.00;99.90;;;;;;4431572;28;656560;-66
2023/03/15 08:34:51;;;;;;;10.63;2.90;;;3.20;99.90;;;;;;4425405;28;658207;-68
2023/03/15 08:37:40;;;;;;;9.90;2.67;;;3.10;99.90;;;;;;4439518;28;656741;-66
2023/03/15 08:40:27;;;;;;;10.75;3.42;;;3.10;99.90;;;;;;4417745;28;655989;-66
2023/03/15 08:43:14;;;;;;;10.23;2.80;;;3.30;99.90;;;;;;4445252;28;656465;-66
2023/03/15 08:46:02;;;;;;;11.90;2.83;;;3.70;99.90;;;;;;4418090;28;657479;-66
2023/03/15 08:48:49;;;;;;;16.80;3.33;;;4.00;99.90;;;;;;4440376;28;656982;-66
2023/03/15 08:51:36;;;;;;;23.87;3.30;;;3.70;99.90;;;;;;4423384;28;656888;-66
2023/03/15 08:54:26;;;;;;;15.13;2.80;;;3.70;99.90;;;;;;4437445;28;657852;-66
2023/03/15 08:57:13;;;;;;;8.20;2.63;;;3.90;99.90;;;;;;4403970;28;657208;-66
2023/03/15 09:00:00;;;;;;;9.57;2.70;;;4.00;99.90;;;;;;4425024;28;654857;-68
2023/03/15 09:02:48;;;;;;;20.73;2.80;;;3.80;99.90;;;;;;4439357;28;656993;-66
2023/03/15 09:05:36;;;;;;;10.50;2.43;;;3.70;99.90;;;;;;4418157;28;656438;-67
2023/03/15 09:08:24;;;;;;;16.00;3.70;;;3.50;99.90;;;;;;4439727;28;656807;-66
2023/03/15 09:11:12;;;;;;;11.80;2.90;;;3.50;99.90;;;;;;4417898;28;656578;-66
2023/03/15 09:14:00;;;;;;;7.80;2.20;;;3.80;99.90;;;;;;4431236;28;656054;-65
2023/03/15 09:16:47;;;;;;;6.57;1.67;;;3.90;99.90;;;;;;4418114;28;656116;-66
2023/03/15 09:19:34;;;;;;;5.93;1.53;;;3.50;99.90;;;;;;4438393;28;655363;-66
2023/03/15 09:22:21;;;;;;;10.02;2.30;;;3.50;99.90;;;;;;4415866;28;656020;-69
2023/03/15 09:25:09;;;;;;;10.07;2.00;;;3.60;99.90;;;;;;4437530;28;656603;-68
2023/03/15 09:27:58;;;;;;;13.40;2.63;;;3.70;99.90;;;;;;4425002;28;656894;-68
2023/03/15 09:30:45;;;;;;;16.27;2.37;;;3.70;99.90;;;;;;4409853;28;656422;-70
2023/03/15 09:33:33;;;;;;;11.00;2.30;;;3.90;99.90;;;;;;4437721;28;657374;-66
2023/03/15 09:36:20;;;;;;;18.47;2.50;;;4.20;99.90;;;;;;4428304;28;656417;-67
2023/03/15 09:39:08;;;;;;;15.03;2.57;;;4.10;99.90;;;;;;4436935;28;657426;-66
2023/03/15 09:41:57;;;;;;;13.13;2.67;;;4.10;99.90;;;;;;4421016;28;655949;-68
2023/03/15 09:44:48;;;;;;;13.20;2.20;;;4.30;99.90;;;;;;4433909;28;657084;-65
2023/03/15 09:47:39;;;;;;;10.03;2.37;;;4.50;99.90;;;;;;4389294;28;656790;-67
2023/03/15 09:50:29;;;;;;;5.47;1.87;;;4.30;99.90;;;;;;4398431;28;656957;-66
2023/03/15 09:53:18;;;;;;;5.67;1.40;;;4.20;99.90;;;;;;4406122;28;655324;-66
2023/03/15 09:56:19;;;;;;;9.43;2.20;;;4.00;99.90;;;;;;4418557;28;655744;-66
2023/03/15 09:59:07;;;;;;;13.20;2.03;;;4.30;99.90;;;;;;4426315;28;655798;-66
2023/03/15 10:01:55;;;;;;;9.57;2.20;;;4.60;99.90;;;;;;4435768;28;656407;-66
2023/03/15 10:04:43;;;;;;;9.47;2.13;;;4.40;99.90;;;;;;4409502;28;656537;-66
2023/03/15 10:07:31;;;;;;;8.03;2.47;;;4.30;99.90;;;;;;4421754;28;656025;-66
2023/03/15 10:10:19;;;;;;;9.37;2.40;;;4.30;99.90;;;;;;4445323;28;655535;-64
2023/03/15 10:13:14;;;;;;;12.53;2.40;;;4.30;99.90;;;;;;4421823;28;655910;-65
2023/03/15 10:16:10;;;;;;;9.03;2.37;;;4.30;99.90;;;;;;4394031;28;656953;-66
2023/03/15 10:19:06;;;;;;;6.97;2.57;;;4.20;99.90;;;;;;4416552;28;655114;-66
2023/03/15 10:21:56;;;;;;;11.43;2.17;;;4.20;99.90;;;;;;4424891;28;656264;-65
2023/03/15 10:24:45;;;;;;;7.87;2.13;;;4.10;99.90;;;;;;4417087;28;657204;-66
2023/03/15 10:27:34;;;;;;;10.43;2.20;;;4.20;99.90;;;;;;4416201;28;656574;-67
2023/03/15 10:30:23;;;;;;;8.90;2.63;;;4.50;99.90;;;;;;4407119;28;658010;-66
2023/03/15 10:33:14;;;;;;;10.53;2.60;;;4.60;99.90;;;;;;4425850;28;655907;-67
2023/03/15 10:36:04;;;;;;;8.27;2.20;;;4.30;99.90;;;;;;4414265;28;656587;-65
2023/03/15 10:38:51;;;;;;;10.57;2.37;;;4.00;99.90;;;;;;4426670;28;655839;-66
2023/03/15 10:41:39;;;;;;;10.80;2.40;;;4.20;99.90;;;;;;4443726;28;656759;-66
2023/03/15 10:44:26;;;;;;;11.50;2.50;;;4.20;99.90;;;;;;4419727;28;656464;-68
2023/03/15 10:47:16;;;;;;;4.97;2.10;;;4.50;99.90;;;;;;4430703;28;657020;-66
2023/03/15 10:50:03;;;;;;;6.83;2.20;;;4.30;99.90;;;;;;4404824;28;655808;-66
2023/03/15 10:52:54;;;;;;;6.85;1.63;;;4.50;99.90;;;;;;4415568;28;655631;-67
2023/03/15 10:55:43;;;;;;;10.10;2.70;;;4.40;99.90;;;;;;4414157;28;655639;-67
2023/03/15 10:58:39;;;;;;;10.27;2.30;;;3.90;99.90;;;;;;4414151;28;656518;-66
2023/03/15 11:01:27;;;;;;;13.50;2.23;;;3.80;99.90;;;;;;4419568;28;656613;-66
2023/03/15 11:04:17;;;;;;;10.27;2.30;;;3.80;99.90;;;;;;4443919;28;656731;-66
2023/03/15 11:07:06;;;;;;;7.30;2.17;;;3.90;99.90;;;;;;4415671;28;657459;-65
2023/03/15 11:09:58;;;;;;;8.47;2.07;;;3.90;99.90;;;;;;4412687;28;656648;-65
2023/03/15 11:12:46;;;;;;;11.50;2.30;;;4.20;99.90;;;;;;4395764;28;656233;-66
2023/03/15 11:15:33;;;;;;;7.40;2.20;;;4.50;99.90;;;;;;4438290;28;657110;-65
2023/03/15 11:18:24;;;;;;;11.85;2.80;;;4.60;99.90;;;;;;4423707;28;655775;-67
2023/03/15 11:21:13;;;;;;;8.97;2.40;;;4.80;99.90;;;;;;4420030;28;656874;-65
2023/03/15 11:24:02;;;;;;;7.87;2.50;;;4.70;99.90;;;;;;4413351;28;655563;-66
2023/03/15 11:26:52;;;;;;;11.20;2.30;;;4.60;99.90;;;;;;4441090;28;655201;-66
2023/03/15 11:29:39;;;;;;;9.97;2.13;;;4.80;99.90;;;;;;4414700;28;656568;-66
2023/03/15 11:32:29;;;;;;;9.80;2.00;;;5.00;99.90;;;;;;4421191;28;656322;-66
2023/03/15 11:35:19;;;;;;;8.33;2.10;;;4.80;99.70;;;;;;4421225;28;655083;-65
2023/03/15 11:38:11;;;;;;;4.50;1.73;;;4.80;97.90;;;;;;4412035;28;655732;-66
2023/03/15 11:40:58;;;;;;;6.93;2.00;;;5.00;99.00;;;;;;4409208;28;655983;-65
2023/03/15 11:43:53;;;;;;;6.80;1.70;;;5.00;97.00;;;;;;4421560;28;655860;-67
2023/03/15 11:46:43;;;;;;;6.10;1.63;;;4.90;95.70;;;;;;4419031;28;655731;-66
2023/03/15 11:49:33;;;;;;;7.00;1.77;;;4.60;96.50;;;;;;4428327;28;655447;-67
2023/03/15 11:52:22;;;;;;;7.93;1.73;;;4.50;96.40;;;;;;4418684;28;655692;-67
2023/03/15 11:55:19;;;;;;;4.93;1.30;;;4.50;96.10;;;;;;4445054;28;655691;-65
2023/03/15 11:58:29;;;;;;;4.30;1.20;;;4.60;94.50;;;;;;4414488;28;655925;-66
2023/03/15 12:01:25;;;;;;;4.10;1.40;;;4.60;95.00;;;;;;4420377;28;655464;-66
2023/03/15 12:04:43;;;;;;;4.53;1.73;;;4.80;93.40;;;;;;4392258;28;656190;-65
2023/03/15 12:07:38;;;;;;;6.33;1.70;;;5.10;93.60;;;;;;4324622;28;655452;-65
2023/03/15 12:10:33;;;;;;;6.15;1.48;;;5.00;91.90;;;;;;4420461;28;656227;-67
2023/03/15 12:13:23;;;;;;;10.35;1.77;;;5.10;91.60;;;;;;4397621;28;655621;-67
2023/03/15 12:16:11;;;;;;;5.67;1.40;;;5.00;87.70;;;;;;4418170;28;656652;-66
2023/03/15 12:19:00;;;;;;;3.93;1.50;;;5.00;86.90;;;;;;4442672;28;655849;-67
2023/03/15 12:21:49;;;;;;;5.87;1.83;;;4.70;91.00;;;;;;4425199;28;656176;-65
2023/03/15 12:24:37;;;;;;;9.90;1.73;;;4.80;88.80;;;;;;4420538;28;656540;-67
2023/03/15 12:27:24;;;;;;;7.20;1.80;;;4.80;87.90;;;;;;4443527;28;655677;-65
2023/03/15 12:30:20;;;;;;;7.83;1.97;;;5.00;88.70;;;;;;4423633;28;655681;-66
2023/03/15 12:33:13;;;;;;;7.73;1.50;;;5.30;88.60;;;;;;4414075;28;655593;-66
2023/03/15 12:36:04;;;;;;;9.40;1.70;;;5.60;82.60;;;;;;4401271;28;655436;-67
2023/03/15 12:39:00;;;;;;;11.90;2.30;;;5.30;82.90;;;;;;4424647;28;655127;-65
2023/03/15 12:41:48;;;;;;;7.17;1.80;;;5.40;83.70;;;;;;4392373;28;657401;-66
2023/03/15 12:44:39;;;;;;;11.47;2.00;;;5.60;85.70;;;;;;4422235;28;656628;-66
2023/03/15 12:47:27;;;;;;;7.00;2.00;;;5.80;87.00;;;;;;4416742;28;657200;-66
2023/03/15 12:50:38;;;;;;;10.13;2.05;;;6.20;85.90;;;;;;4444057;28;655306;-65
2023/03/15 12:53:38;;;;;;;5.13;1.60;;;6.30;80.90;;;;;;4412157;28;657572;-66
2023/03/15 12:56:50;;;;;;;10.30;2.07;;;5.90;78.50;;;;;;4394024;28;656841;-65
2023/03/15 12:59:43;;;;;;;8.88;1.60;;;5.10;84.10;;;;;;4420970;28;656830;-65
2023/03/15 13:02:32;;;;;;;7.23;1.57;;;5.30;81.30;;;;;;4402137;28;656431;-67
2023/03/15 13:05:23;;;;;;;6.40;1.90;;;5.10;83.30;;;;;;4440296;28;656392;-66
2023/03/15 13:08:17;;;;;;;10.23;2.10;;;5.20;82.50;;;;;;4433914;28;656332;-68
2023/03/15 13:11:15;;;;;;;9.30;2.37;;;5.30;84.30;;;;;;4422256;28;656072;-65
2023/03/15 13:14:11;;;;;;;7.80;2.30;;;5.40;84.90;;;;;;4420255;28;655335;-67
2023/03/15 13:17:03;;;;;;;11.63;2.13;;;5.70;82.90;;;;;;4417637;28;656450;-67
2023/03/15 13:19:54;;;;;;;7.93;2.03;;;5.60;83.60;;;;;;4399810;28;656748;-67
2023/03/15 13:22:46;;;;;;;6.30;1.90;;;5.70;83.90;;;;;;4419583;28;655568;-66
2023/03/15 13:25:35;;;;;;;7.30;1.87;;;5.50;81.10;;;;;;4414538;28;655893;-65
2023/03/15 13:28:25;;;;;;;6.23;1.60;;;5.30;80.50;;;;;;4421971;28;656428;-66
2023/03/15 13:31:13;;;;;;;5.33;2.30;;;5.40;83.50;;;;;;4418302;28;655940;-67
2023/03/15 13:34:10;;;;;;;11.50;2.65;;;5.00;84.90;;;;;;4414479;28;655402;-66
2023/03/15 13:36:59;;;;;;;7.27;2.07;;;4.50;88.20;;;;;;4421275;28;656509;-69
2023/03/15 13:39:54;;;;;;;3.53;1.47;;;4.50;87.10;;;;;;4412372;28;655751;-68
2023/03/15 13:42:41;;;;;;;6.73;1.90;;;4.50;90.20;;;;;;4415947;28;656314;-67
2023/03/15 13:45:30;;;;;;;7.83;2.00;;;4.40;87.80;;;;;;4443723;28;655581;-69
2023/03/15 13:48:18;;;;;;;8.50;1.95;;;4.40;90.40;;;;;;4419688;28;656121;-68
2023/03/15 13:51:07;;;;;;;6.63;1.97;;;4.30;90.60;;;;;;4429785;28;655351;-70
2023/03/15 13:53:55;;;;;;;5.57;1.77;;;4.50;91.40;;;;;;4441092;28;655430;-68
2023/03/15 13:56:47;;;;;;;8.32;1.98;;;4.30;87.00;;;;;;4412821;28;656957;-68
2023/03/15 13:59:36;;;;;;;8.20;1.93;;;4.30;88.30;;;;;;4421921;28;656214;-68
2023/03/15 14:02:26;;;;;;;7.93;1.67;;;4.30;87.40;;;;;;4422433;28;655495;-67
2023/03/15 14:05:15;;;;;;;5.20;2.20;;;4.30;87.30;;;;;;4421037;28;655529;-70
2023/03/15 14:08:02;;;;;;;6.83;2.37;;;4.40;90.60;;;;;;4420290;28;656916;-68
2023/03/15 14:11:04;;;;;;;14.13;2.57;;;4.40;90.00;;;;;;4428397;28;656197;-69
2023/03/15 14:13:52;;;;;;;10.00;3.37;;;4.20;89.90;;;;;;4390378;28;657371;-68
2023/03/15 14:16:40;;;;;;;11.60;2.80;;;4.40;91.60;;;;;;4437479;28;656842;-68
2023/03/15 14:19:30;;;;;;;10.23;2.93;;;4.40;90.90;;;;;;4420543;28;657637;-68
2023/03/15 14:22:18;;;;;;;9.93;2.60;;;4.40;91.60;;;;;;4416183;28;656673;-68
2023/03/15 14:25:19;;;;;;;9.82;2.60;;;4.30;91.50;;;;;;4428128;28;655963;-69
2023/03/15 14:28:06;;;;;;;7.83;2.17;;;4.40;90.30;;;;;;4412344;28;655953;-68
2023/03/15 14:30:54;;;;;;;7.75;2.20;;;4.50;92.00;;;;;;4440318;28;655894;-71
2023/03/15 14:33:42;;;;;;;11.20;2.40;;;4.50;88.20;;;;;;4412945;28;655592;-68